Time;durP1;ratioP1;P1;durP2;ratioP2;P2;SDS_P1;SDS_P2;PMS_P1;PMS_P2;Temp;Humidity;BMP_temperature;BMP_pressure;BME280_temperature;BME280_humidity;BME280_pressure;Samples;Min_cycle;Max_cycle;Signal;HPM_P1;HPM_P2
2022/03/09 00:00:22;;;;;;;8.32;3.83;;;0.10;79.10;;;;;;4973994;28;20054;-83
2022/03/09 00:02:48;;;;;;;8.02;4.13;;;0.10;79.20;;;;;;4974084;28;20120;-84
2022/03/09 00:05:13;;;;;;;6.72;3.67;;;0.00;79.40;;;;;;4977343;28;20041;-85
2022/03/09 00:07:39;;;;;;;6.20;3.88;;;0.00;79.70;;;;;;4990027;28;20042;-83
2022/03/09 00:10:05;;;;;;;9.45;4.03;;;0.10;79.70;;;;;;4964017;28;20042;-86
2022/03/09 00:12:32;;;;;;;6.25;3.83;;;0.10;79.50;;;;;;4966417;28;20037;-84
2022/03/09 00:14:58;;;;;;;6.63;4.25;;;0.10;79.70;;;;;;4974988;28;20046;-83
2022/03/09 00:17:24;;;;;;;7.07;3.97;;;0.00;79.70;;;;;;4975225;28;20088;-85
2022/03/09 00:19:49;;;;;;;8.95;4.35;;;-0.10;80.10;;;;;;4960346;28;20054;-84
2022/03/09 00:22:16;;;;;;;9.77;4.40;;;-0.10;80.70;;;;;;4988014;28;20089;-83
2022/03/09 00:24:42;;;;;;;9.00;4.53;;;-0.10;80.70;;;;;;4989907;28;20375;-83
2022/03/09 00:27:08;;;;;;;7.85;4.45;;;-0.10;81.00;;;;;;4993729;28;20062;-83
2022/03/09 00:29:34;;;;;;;7.78;4.45;;;-0.10;81.10;;;;;;4975374;28;20100;-83
2022/03/09 00:32:00;;;;;;;6.57;4.28;;;-0.10;81.20;;;;;;4991390;28;20042;-83
2022/03/09 00:34:25;;;;;;;7.72;4.00;;;-0.10;81.20;;;;;;4975578;28;20538;-84
2022/03/09 00:36:51;;;;;;;6.38;4.20;;;-0.20;81.00;;;;;;4975010;28;20135;-82
2022/03/09 00:39:17;;;;;;;6.90;4.22;;;-0.20;81.30;;;;;;4972674;28;20046;-83
2022/03/09 00:41:43;;;;;;;8.55;4.30;;;-0.10;81.60;;;;;;4969529;28;20077;-83
2022/03/09 00:44:08;;;;;;;8.77;4.78;;;-0.10;81.40;;;;;;4989031;28;20043;-83
2022/03/09 00:46:34;;;;;;;8.18;4.63;;;-0.10;81.50;;;;;;4973277;28;20122;-83
2022/03/09 00:49:01;;;;;;;6.75;4.18;;;-0.10;81.50;;;;;;4975743;28;20049;-83
2022/03/09 00:51:26;;;;;;;11.93;4.72;;;-0.10;81.40;;;;;;4991853;28;20046;-84
2022/03/09 00:53:52;;;;;;;9.52;4.90;;;-0.20;81.60;;;;;;4976293;28;20057;-83
2022/03/09 00:56:18;;;;;;;8.27;4.50;;;-0.20;82.00;;;;;;4970879;28;20070;-83
2022/03/09 00:58:44;;;;;;;11.98;4.72;;;-0.20;82.40;;;;;;4991663;28;20045;-85
2022/03/09 01:01:10;;;;;;;8.18;5.03;;;-0.30;82.80;;;;;;4992154;28;20064;-83
2022/03/09 01:03:37;;;;;;;7.63;5.07;;;-0.30;83.00;;;;;;4963872;28;20050;-83
2022/03/09 01:06:03;;;;;;;7.97;4.78;;;-0.40;83.10;;;;;;4977275;28;20046;-84
2022/03/09 01:08:28;;;;;;;8.48;4.65;;;-0.30;83.50;;;;;;4974825;28;20408;-83
2022/03/09 01:10:54;;;;;;;14.93;5.38;;;-0.40;83.50;;;;;;4976083;28;20042;-82
2022/03/09 01:13:21;;;;;;;11.48;5.03;;;-0.40;83.80;;;;;;4991573;28;20053;-82
2022/03/09 01:15:47;;;;;;;8.98;4.88;;;-0.40;84.00;;;;;;4972556;28;20069;-83
2022/03/09 01:18:13;;;;;;;8.27;4.82;;;-0.40;83.80;;;;;;4974934;28;20046;-85
2022/03/09 01:20:39;;;;;;;10.68;5.15;;;-0.40;84.00;;;;;;4959636;28;20073;-82
2022/03/09 01:23:05;;;;;;;9.30;5.80;;;-0.40;84.10;;;;;;4991843;28;20133;-82
2022/03/09 01:25:31;;;;;;;9.55;4.63;;;-0.40;84.20;;;;;;4991382;28;20117;-86
2022/03/09 01:27:56;;;;;;;10.00;5.25;;;-0.40;84.20;;;;;;4964182;28;20498;-83
2022/03/09 01:30:22;;;;;;;8.32;5.20;;;-0.40;84.30;;;;;;4959130;28;20042;-83
2022/03/09 01:32:48;;;;;;;9.60;5.22;;;-0.30;84.80;;;;;;4961984;28;20069;-83
2022/03/09 01:35:15;;;;;;;8.82;5.20;;;-0.40;84.80;;;;;;5007166;28;20081;-83
2022/03/09 01:37:40;;;;;;;11.93;5.18;;;-0.40;85.00;;;;;;4975340;28;20042;-83
2022/03/09 01:40:07;;;;;;;10.00;5.22;;;-0.40;84.90;;;;;;4969919;28;20127;-84
2022/03/09 01:42:33;;;;;;;8.60;4.50;;;-0.40;85.00;;;;;;4956047;28;20503;-83
2022/03/09 01:45:07;;;;;;;10.40;5.53;;;-0.50;85.30;;;;;;4990461;28;20034;-83
2022/03/09 01:47:33;;;;;;;9.55;5.00;;;-0.50;85.30;;;;;;4970547;28;20515;-83
2022/03/09 01:49:59;;;;;;;8.68;5.18;;;-0.50;85.50;;;;;;4975589;28;20495;-83
2022/03/09 01:52:26;;;;;;;8.88;5.20;;;-0.40;85.40;;;;;;4987658;28;20047;-84
2022/03/09 01:54:52;;;;;;;12.93;5.20;;;-0.50;85.40;;;;;;4958196;28;20045;-83
2022/03/09 01:57:20;;;;;;;11.68;5.82;;;-0.50;85.40;;;;;;4972277;28;20081;-83
2022/03/09 01:59:51;;;;;;;10.00;5.88;;;-0.50;85.80;;;;;;4955602;28;20061;-84
2022/03/09 02:02:17;;;;;;;11.13;5.90;;;-0.50;85.80;;;;;;4985421;28;20074;-83
2022/03/09 02:04:44;;;;;;;10.38;6.10;;;-0.60;85.90;;;;;;4984541;28;20131;-82
2022/03/09 02:07:10;;;;;;;18.85;6.40;;;-0.70;86.20;;;;;;4974332;28;20039;-89
2022/03/09 02:09:44;;;;;;;10.38;5.90;;;-0.80;86.70;;;;;;4975117;28;20061;-82
2022/03/09 02:12:15;;;;;;;11.35;6.03;;;-0.80;86.90;;;;;;4969652;28;20038;-86
2022/03/09 02:14:44;;;;;;;10.82;6.32;;;-0.90;87.30;;;;;;4985394;28;20068;-84
2022/03/09 02:17:19;;;;;;;12.02;6.65;;;-0.90;87.80;;;;;;5000682;28;20049;-88
2022/03/09 02:19:50;;;;;;;9.60;5.95;;;-1.00;87.80;;;;;;4979860;28;20064;-85
2022/03/09 02:22:35;;;;;;;12.95;6.78;;;-1.10;88.10;;;;;;4982150;28;20078;-83
2022/03/09 02:25:03;;;;;;;9.95;5.68;;;-1.10;88.30;;;;;;4971199;28;20069;-82
2022/03/09 02:27:29;;;;;;;12.20;6.25;;;-1.10;88.50;;;;;;4991948;28;20152;-84
2022/03/09 02:29:55;;;;;;;9.23;6.00;;;-1.10;88.70;;;;;;5004309;28;20043;-83
2022/03/09 02:32:21;;;;;;;10.25;6.40;;;-1.10;89.20;;;;;;4977092;28;20152;-83
2022/03/09 02:34:48;;;;;;;12.10;6.43;;;-1.10;89.60;;;;;;4991207;28;20439;-83
2022/03/09 02:37:14;;;;;;;9.15;5.78;;;-1.10;89.30;;;;;;4994157;28;20380;-84
2022/03/09 02:39:40;;;;;;;10.77;6.35;;;-1.20;89.30;;;;;;4979170;28;20042;-82
2022/03/09 02:42:08;;;;;;;10.88;6.38;;;-1.30;89.80;;;;;;4984316;28;20118;-84
2022/03/09 02:44:34;;;;;;;12.40;6.47;;;-1.30;90.00;;;;;;4988491;28;20185;-83
2022/03/09 02:47:00;;;;;;;10.82;6.55;;;-1.40;90.10;;;;;;4932005;28;20046;-83
2022/03/09 02:49:26;;;;;;;10.98;6.38;;;-1.40;90.20;;;;;;4974311;28;20034;-83
2022/03/09 02:51:52;;;;;;;11.55;6.20;;;-1.40;90.40;;;;;;4973082;28;20061;-82
2022/03/09 02:54:18;;;;;;;10.52;6.18;;;-1.40;90.50;;;;;;4994547;28;20484;-83
2022/03/09 02:56:44;;;;;;;11.30;5.95;;;-1.40;90.60;;;;;;4994318;28;20446;-84
2022/03/09 02:59:10;;;;;;;12.23;6.40;;;-1.40;90.50;;;;;;4943262;28;20126;-84
2022/03/09 03:01:36;;;;;;;10.45;6.20;;;-1.30;90.60;;;;;;4992618;28;20038;-83
2022/03/09 03:04:01;;;;;;;10.45;6.07;;;-1.40;90.50;;;;;;5002349;28;20034;-83
2022/03/09 03:06:27;;;;;;;10.23;6.05;;;-1.40;90.50;;;;;;4977902;28;20492;-83
2022/03/09 03:08:53;;;;;;;12.95;6.43;;;-1.50;90.60;;;;;;4977953;28;20097;-84
2022/03/09 03:11:19;;;;;;;11.68;6.32;;;-1.50;90.80;;;;;;4991199;28;20121;-82
2022/03/09 03:13:45;;;;;;;11.32;6.47;;;-1.60;90.90;;;;;;5009992;28;20046;-85
2022/03/09 03:16:11;;;;;;;13.00;6.45;;;-1.60;90.90;;;;;;4977966;28;20042;-83
2022/03/09 03:18:38;;;;;;;13.07;7.05;;;-1.60;91.00;;;;;;4994165;28;20057;-83
2022/03/09 03:21:05;;;;;;;12.45;6.35;;;-1.70;91.20;;;;;;4994221;28;20074;-84
2022/03/09 03:23:32;;;;;;;12.75;6.22;;;-1.70;91.30;;;;;;4977651;28;20502;-84
2022/03/09 03:25:58;;;;;;;11.25;6.35;;;-1.70;91.40;;;;;;4993352;28;20045;-83
2022/03/09 03:28:25;;;;;;;12.35;5.97;;;-1.70;91.40;;;;;;4958010;28;20050;-83
2022/03/09 03:30:51;;;;;;;12.07;6.75;;;-1.70;91.60;;;;;;4966810;28;20050;-85
2022/03/09 03:33:18;;;;;;;12.20;6.43;;;-1.70;91.70;;;;;;4993648;28;20042;-83
2022/03/09 03:35:46;;;;;;;11.52;6.18;;;-1.70;91.80;;;;;;4993805;28;20034;-84
2022/03/09 03:38:12;;;;;;;11.43;6.45;;;-1.70;92.20;;;;;;4993049;28;20073;-83
2022/03/09 03:40:38;;;;;;;11.88;6.50;;;-1.70;92.00;;;;;;4993271;28;20117;-83
2022/03/09 03:43:04;;;;;;;11.85;5.72;;;-1.70;92.20;;;;;;4986814;28;20058;-83
2022/03/09 03:45:30;;;;;;;12.88;7.03;;;-1.70;92.20;;;;;;4989376;28;20129;-85
2022/03/09 03:47:56;;;;;;;16.10;8.30;;;-1.80;92.30;;;;;;5007299;28;20578;-83
2022/03/09 03:50:22;;;;;;;12.20;7.35;;;-1.80;92.30;;;;;;4992648;28;20118;-83
2022/03/09 03:52:48;;;;;;;14.02;6.95;;;-1.70;92.50;;;;;;4981695;28;20081;-83
2022/03/09 03:55:14;;;;;;;12.88;6.70;;;-1.70;92.60;;;;;;4976514;28;20058;-84
2022/03/09 03:57:40;;;;;;;14.43;6.82;;;-1.70;92.60;;;;;;4975164;28;20101;-82
2022/03/09 04:00:07;;;;;;;13.05;7.38;;;-1.80;92.80;;;;;;4974475;28;20133;-85
2022/03/09 04:02:33;;;;;;;16.27;6.78;;;-1.80;92.80;;;;;;5000424;28;20101;-87
2022/03/09 04:04:59;;;;;;;14.40;7.05;;;-1.70;92.80;;;;;;4975141;28;20467;-84
2022/03/09 04:07:25;;;;;;;12.07;7.25;;;-1.70;92.90;;;;;;4958586;28;20122;-83
2022/03/09 04:09:50;;;;;;;14.55;7.65;;;-1.70;93.00;;;;;;4977520;28;20043;-84
2022/03/09 04:12:16;;;;;;;13.18;7.40;;;-1.80;92.90;;;;;;4958394;28;20076;-90
2022/03/09 04:14:41;;;;;;;12.15;7.07;;;-1.80;93.10;;;;;;4988346;28;20043;-84
2022/03/09 04:17:07;;;;;;;12.45;7.38;;;-1.80;93.10;;;;;;4940439;28;20038;-84
2022/03/09 04:19:33;;;;;;;13.07;6.90;;;-1.80;93.10;;;;;;4990711;28;20039;-85
2022/03/09 04:21:59;;;;;;;13.15;7.32;;;-1.80;93.10;;;;;;4976783;28;20356;-84
2022/03/09 04:24:24;;;;;;;14.00;7.30;;;-1.80;93.20;;;;;;4971556;28;20059;-86
2022/03/09 04:26:50;;;;;;;14.73;7.93;;;-1.80;93.40;;;;;;4972233;28;20097;-83
2022/03/09 04:29:16;;;;;;;15.27;8.18;;;-1.70;93.50;;;;;;4972833;28;20042;-84
2022/03/09 04:31:42;;;;;;;11.68;7.30;;;-1.80;93.40;;;;;;4991354;28;20043;-82
2022/03/09 04:34:08;;;;;;;13.02;7.28;;;-1.80;93.40;;;;;;4974055;28;20383;-83
2022/03/09 04:36:34;;;;;;;12.65;7.05;;;-1.80;93.50;;;;;;4989425;28;20488;-84
2022/03/09 04:39:01;;;;;;;11.40;7.05;;;-1.90;93.50;;;;;;5005756;28;20073;-83
2022/03/09 04:41:27;;;;;;;13.32;7.05;;;-1.90;93.70;;;;;;4979253;28;20058;-83
2022/03/09 04:43:52;;;;;;;14.23;7.35;;;-1.90;93.80;;;;;;4991648;28;20049;-83
2022/03/09 04:46:18;;;;;;;17.45;7.85;;;-2.00;93.80;;;;;;4990855;28;20384;-87
2022/03/09 04:48:44;;;;;;;12.40;7.38;;;-2.00;94.00;;;;;;4973455;28;20034;-84
2022/03/09 04:51:10;;;;;;;14.13;7.90;;;-1.90;94.20;;;;;;4975159;28;20337;-82
2022/03/09 04:53:36;;;;;;;15.65;7.80;;;-2.00;94.50;;;;;;4974882;28;20039;-82
2022/03/09 04:56:02;;;;;;;14.15;7.55;;;-2.00;94.50;;;;;;4949006;28;20035;-83
2022/03/09 04:58:28;;;;;;;13.80;7.20;;;-1.90;94.40;;;;;;4967034;28;20034;-82
2022/03/09 05:00:54;;;;;;;14.07;7.90;;;-1.90;94.40;;;;;;4991436;28;20042;-85
2022/03/09 05:03:19;;;;;;;14.38;7.60;;;-1.90;94.50;;;;;;4973829;28;20038;-89
2022/03/09 05:05:45;;;;;;;12.70;7.15;;;-2.00;94.50;;;;;;4973960;28;20042;-83
2022/03/09 05:08:11;;;;;;;15.80;8.40;;;-2.00;94.70;;;;;;4987087;28;20707;-83
2022/03/09 05:10:37;;;;;;;12.88;7.35;;;-1.90;94.70;;;;;;4972074;28;20042;-82
2022/03/09 05:13:03;;;;;;;17.95;7.88;;;-2.00;94.50;;;;;;4990226;28;20597;-82
2022/03/09 05:15:29;;;;;;;15.60;7.88;;;-2.00;94.50;;;;;;4987935;28;20034;-87
2022/03/09 05:17:55;;;;;;;14.40;7.68;;;-2.00;94.60;;;;;;4988696;28;20117;-83
2022/03/09 05:20:21;;;;;;;16.95;7.80;;;-2.10;94.70;;;;;;4975909;28;20057;-90
2022/03/09 05:22:47;;;;;;;14.73;7.60;;;-2.10;94.80;;;;;;4984763;28;20039;-82
2022/03/09 05:25:13;;;;;;;13.70;7.78;;;-2.10;95.20;;;;;;4955498;28;20054;-82
2022/03/09 05:27:40;;;;;;;14.05;7.55;;;-2.20;95.00;;;;;;4971439;28;20038;-82
2022/03/09 05:30:07;;;;;;;14.73;8.00;;;-2.20;95.10;;;;;;4972542;28;20073;-82
2022/03/09 05:32:33;;;;;;;15.55;7.82;;;-2.30;95.20;;;;;;4985665;28;20400;-81
2022/03/09 05:34:58;;;;;;;14.32;7.63;;;-2.30;95.50;;;;;;4990273;28;20451;-83
2022/03/09 05:37:24;;;;;;;14.10;7.63;;;-2.40;95.70;;;;;;4974011;28;20042;-90
2022/03/09 05:39:50;;;;;;;16.75;8.60;;;-2.30;95.90;;;;;;4995791;28;20046;-83
2022/03/09 05:42:16;;;;;;;15.25;8.48;;;-2.30;96.00;;;;;;4976549;28;20093;-85
2022/03/09 05:44:41;;;;;;;13.25;7.72;;;-2.30;95.90;;;;;;4999134;28;20050;-82
2022/03/09 05:47:07;;;;;;;15.38;7.32;;;-2.30;96.00;;;;;;4990688;28;20042;-84
2022/03/09 05:49:33;;;;;;;16.00;8.75;;;-2.30;95.90;;;;;;4973795;28;20039;-83
2022/03/09 05:51:59;;;;;;;17.38;7.88;;;-2.30;95.90;;;;;;4975453;28;20042;-83
2022/03/09 05:54:25;;;;;;;14.98;8.02;;;-2.40;96.10;;;;;;4965494;28;20046;-89
2022/03/09 05:56:51;;;;;;;13.65;8.15;;;-2.40;96.00;;;;;;4966770;28;20433;-82
2022/03/09 05:59:17;;;;;;;15.73;7.80;;;-2.40;96.10;;;;;;5000031;28;20580;-84
2022/03/09 06:01:43;;;;;;;15.77;8.35;;;-2.40;96.10;;;;;;4962434;28;20365;-86
2022/03/09 06:04:09;;;;;;;17.13;8.20;;;-2.50;96.10;;;;;;4986472;28;20054;-83
2022/03/09 06:06:35;;;;;;;13.75;7.45;;;-2.50;96.20;;;;;;4990008;28;20045;-83
2022/03/09 06:09:01;;;;;;;14.25;7.88;;;-2.50;96.40;;;;;;4988917;28;20046;-83
2022/03/09 06:11:27;;;;;;;13.88;6.95;;;-2.50;96.50;;;;;;4990329;28;20077;-86
2022/03/09 06:13:52;;;;;;;15.82;7.82;;;-2.50;96.60;;;;;;4973191;28;20387;-81
2022/03/09 06:16:18;;;;;;;14.05;8.15;;;-2.50;96.50;;;;;;4941872;28;20047;-80
2022/03/09 06:19:05;;;;;;;16.63;8.32;;;-2.50;96.60;;;;;;4973758;28;20086;-81
2022/03/09 06:25:18;;;;;;;14.77;8.20;;;-2.50;96.80;;;;;;4974467;28;20065;-81
2022/03/09 06:31:44;;;;;;;16.52;9.48;;;-2.50;97.00;;;;;;4974451;28;20103;-80
2022/03/09 06:37:51;;;;;;;15.88;8.13;;;-2.40;97.10;;;;;;4980017;28;20108;-82
2022/03/09 06:40:17;;;;;;;15.50;8.23;;;-2.50;97.10;;;;;;4991263;28;20468;-82
2022/03/09 06:42:43;;;;;;;17.17;8.10;;;-2.50;97.30;;;;;;4974009;28;20083;-82
2022/03/09 06:45:09;;;;;;;13.63;7.88;;;-2.40;97.60;;;;;;4990818;28;20054;-81
2022/03/09 06:47:38;;;;;;;16.30;8.18;;;-2.30;97.40;;;;;;4991898;28;20050;-81
2022/03/09 06:50:05;;;;;;;16.13;7.50;;;-2.20;97.50;;;;;;4992808;28;20188;-81
2022/03/09 06:52:32;;;;;;;15.85;8.35;;;-2.20;97.60;;;;;;4992801;28;20112;-82
2022/03/09 06:55:03;;;;;;;13.65;8.27;;;-2.00;97.90;;;;;;4995354;28;20045;-82
2022/03/09 06:57:32;;;;;;;13.05;7.90;;;-1.90;97.80;;;;;;4995289;28;20077;-81
2022/03/09 06:59:59;;;;;;;19.45;7.78;;;-1.80;97.60;;;;;;4980174;28;20534;-81
2022/03/09 07:02:26;;;;;;;16.70;8.00;;;-1.70;97.30;;;;;;4991003;28;20450;-83
2022/03/09 07:04:51;;;;;;;17.85;8.50;;;-1.60;97.10;;;;;;4992722;28;20046;-89
2022/03/09 07:07:17;;;;;;;17.23;8.68;;;-1.50;97.10;;;;;;4994396;28;20046;-83
2022/03/09 07:09:43;;;;;;;14.43;8.82;;;-1.40;97.00;;;;;;4994992;28;20370;-82
2022/03/09 07:12:09;;;;;;;16.95;8.85;;;-1.30;96.90;;;;;;4995255;28;20097;-82
2022/03/09 07:14:35;;;;;;;14.32;8.27;;;-1.20;97.00;;;;;;4996489;28;20104;-82
2022/03/09 07:17:01;;;;;;;14.50;8.20;;;-1.20;96.50;;;;;;4995566;28;20038;-82
2022/03/09 07:19:27;;;;;;;20.35;8.05;;;-1.10;96.50;;;;;;4979404;28;20468;-82
2022/03/09 07:21:54;;;;;;;15.85;8.43;;;-0.90;96.50;;;;;;4978750;28;20089;-82
2022/03/09 07:24:20;;;;;;;14.68;8.25;;;-0.90;96.40;;;;;;4979215;28;20042;-82
2022/03/09 07:26:46;;;;;;;18.95;8.40;;;-0.80;96.30;;;;;;4995055;28;20049;-83
2022/03/09 07:29:12;;;;;;;15.38;8.43;;;-0.70;96.20;;;;;;4978603;28;20038;-82
2022/03/09 07:31:39;;;;;;;14.95;7.57;;;-0.60;96.00;;;;;;4979085;28;20046;-83
2022/03/09 07:34:05;;;;;;;14.00;7.85;;;-0.50;95.90;;;;;;4995099;28;20050;-84
2022/03/09 07:36:30;;;;;;;14.65;7.53;;;-0.40;95.70;;;;;;4994704;28;20467;-88
2022/03/09 07:38:56;;;;;;;13.50;7.82;;;-0.30;95.60;;;;;;4979210;28;20464;-82
2022/03/09 07:41:22;;;;;;;16.58;8.65;;;-0.20;95.40;;;;;;4994955;28;20047;-82
2022/03/09 07:43:48;;;;;;;14.38;8.13;;;-0.10;95.20;;;;;;4995188;28;20128;-81
2022/03/09 07:46:14;;;;;;;12.68;7.32;;;0.00;95.00;;;;;;4979194;28;20034;-81
2022/03/09 07:48:39;;;;;;;11.65;7.38;;;0.20;94.70;;;;;;4978988;28;20088;-82
2022/03/09 07:51:05;;;;;;;13.10;7.55;;;0.30;94.50;;;;;;4963102;28;20483;-81
2022/03/09 07:53:31;;;;;;;16.27;8.52;;;0.40;94.20;;;;;;4995557;28;20046;-83
2022/03/09 07:55:56;;;;;;;13.10;7.68;;;0.50;93.90;;;;;;4995449;28;20042;-82
2022/03/09 07:58:22;;;;;;;12.85;7.50;;;0.70;93.40;;;;;;4979766;28;20464;-82
2022/03/09 08:00:48;;;;;;;12.82;7.22;;;0.90;92.30;;;;;;4962958;28;20560;-82
2022/03/09 08:03:14;;;;;;;15.82;7.50;;;1.00;92.20;;;;;;4995252;28;20049;-81
2022/03/09 08:05:43;;;;;;;13.45;6.90;;;1.20;91.60;;;;;;4962088;28;20046;-82
2022/03/09 08:11:50;;;;;;;13.52;7.40;;;1.40;90.60;;;;;;4995587;28;20388;-82
2022/03/09 08:14:15;;;;;;;12.70;7.28;;;1.60;90.40;;;;;;4994634;28;20038;-83
2022/03/09 08:16:41;;;;;;;11.05;6.97;;;1.70;90.20;;;;;;4978268;28;20435;-82
2022/03/09 08:19:07;;;;;;;14.25;7.85;;;1.70;90.00;;;;;;4994322;28;20133;-83
2022/03/09 08:21:33;;;;;;;14.57;7.70;;;1.80;89.60;;;;;;4977875;28;20177;-82
2022/03/09 08:23:59;;;;;;;20.63;8.02;;;1.90;89.50;;;;;;4978432;28;20479;-81
2022/03/09 08:26:24;;;;;;;13.18;7.22;;;2.00;88.80;;;;;;4978502;28;20053;-82
2022/03/09 08:28:50;;;;;;;13.48;6.90;;;2.10;88.70;;;;;;4994094;28;20133;-82
2022/03/09 08:31:17;;;;;;;13.13;7.28;;;2.20;87.80;;;;;;4977316;28;20038;-82
2022/03/09 08:33:43;;;;;;;11.55;7.45;;;2.30;87.30;;;;;;4977665;28;20097;-82
2022/03/09 08:36:11;;;;;;;14.75;7.95;;;2.40;86.80;;;;;;4994300;28;20048;-81
2022/03/09 08:38:37;;;;;;;15.68;7.32;;;2.50;86.60;;;;;;4978064;28;20049;-86
2022/03/09 08:41:02;;;;;;;13.25;6.75;;;2.60;86.00;;;;;;4993421;28;20443;-82
2022/03/09 08:43:28;;;;;;;12.75;8.18;;;2.60;85.50;;;;;;4994162;28;20085;-82
2022/03/09 08:45:54;;;;;;;14.43;7.72;;;2.80;84.70;;;;;;4977670;28;20126;-85
2022/03/09 08:48:20;;;;;;;15.00;7.85;;;2.80;84.30;;;;;;4977399;28;20034;-82
2022/03/09 08:50:46;;;;;;;10.85;6.88;;;2.90;83.70;;;;;;4961637;28;20109;-82
2022/03/09 08:53:12;;;;;;;11.45;6.68;;;3.10;82.90;;;;;;4977907;28;20499;-81
2022/03/09 08:55:38;;;;;;;12.35;7.10;;;3.30;82.30;;;;;;4993749;28;20046;-86
2022/03/09 08:58:04;;;;;;;10.80;7.22;;;3.40;82.00;;;;;;4994177;28;20050;-82
2022/03/09 09:00:29;;;;;;;15.13;6.97;;;3.40;81.60;;;;;;4993815;28;20376;-82
2022/03/09 09:02:55;;;;;;;11.90;6.75;;;3.50;81.20;;;;;;4977199;28;20054;-84
2022/03/09 09:05:22;;;;;;;14.23;7.82;;;3.60;80.90;;;;;;5009493;28;20132;-83
2022/03/09 09:07:48;;;;;;;11.65;6.93;;;3.70;80.50;;;;;;4960059;28;20053;-82
2022/03/09 09:10:14;;;;;;;16.85;7.05;;;3.80;80.60;;;;;;4976636;28;20038;-82
2022/03/09 09:12:39;;;;;;;11.52;6.45;;;3.90;79.80;;;;;;4959403;28;20054;-83
2022/03/09 09:15:06;;;;;;;14.52;6.85;;;4.00;79.20;;;;;;4976515;28;20046;-82
2022/03/09 09:17:33;;;;;;;12.15;7.07;;;4.20;79.20;;;;;;5008622;28;20050;-83
2022/03/09 09:19:58;;;;;;;11.60;6.93;;;4.30;78.50;;;;;;4975959;28;20054;-83
2022/03/09 09:22:24;;;;;;;10.88;6.95;;;4.40;78.20;;;;;;4960311;28;20042;-83
2022/03/09 09:24:50;;;;;;;12.60;6.70;;;4.50;77.40;;;;;;4992334;28;20050;-84
2022/03/09 09:27:16;;;;;;;13.55;7.68;;;4.70;76.70;;;;;;4992342;28;20096;-83
2022/03/09 09:29:42;;;;;;;10.45;6.65;;;4.80;75.60;;;;;;4975714;28;20379;-83
2022/03/09 09:32:08;;;;;;;12.55;6.82;;;4.90;75.30;;;;;;4992568;28;20046;-83
2022/03/09 09:34:34;;;;;;;9.43;6.35;;;5.10;74.20;;;;;;4976291;28;20046;-83
2022/03/09 09:37:02;;;;;;;13.73;6.43;;;5.30;73.50;;;;;;4975870;28;20042;-83
2022/03/09 09:39:28;;;;;;;13.70;6.47;;;5.40;73.00;;;;;;5008637;28;20050;-83
2022/03/09 09:41:54;;;;;;;11.75;6.93;;;5.50;72.80;;;;;;5007945;28;20065;-82
2022/03/09 09:44:23;;;;;;;15.80;7.10;;;5.70;71.20;;;;;;4992392;28;20043;-83
2022/03/09 09:46:49;;;;;;;11.52;6.60;;;6.00;68.00;;;;;;5008123;28;20491;-83
2022/03/09 09:49:15;;;;;;;14.43;6.57;;;6.20;67.20;;;;;;4991841;28;20038;-86
2022/03/09 09:51:43;;;;;;;11.57;6.90;;;6.50;64.10;;;;;;4975786;28;20487;-83
2022/03/09 09:54:19;;;;;;;10.27;6.50;;;6.80;62.00;;;;;;4975950;28;20054;-82
2022/03/09 09:56:45;;;;;;;;;;;7.10;62.00;;;;;;4976023;28;20065;-85
2022/03/09 09:59:11;;;;;;;10.57;6.73;;;7.30;55.10;;;;;;4992296;28;19918;-82
2022/03/09 10:01:40;;;;;;;12.43;7.57;;;7.50;59.90;;;;;;4975839;28;20369;-83
2022/03/09 10:04:07;;;;;;;12.20;7.43;;;7.70;57.20;;;;;;5008490;28;20043;-88
2022/03/09 10:06:33;;;;;;;12.45;7.10;;;7.90;57.10;;;;;;4974098;28;20054;-83
2022/03/09 10:09:11;;;;;;;11.48;6.80;;;8.00;57.50;;;;;;5006243;28;20047;-82
2022/03/09 10:11:53;;;;;;;12.73;7.22;;;8.20;56.20;;;;;;5008121;28;20096;-83
2022/03/09 10:14:50;;;;;;;11.18;6.75;;;8.30;55.60;;;;;;4991849;28;20046;-83
2022/03/09 10:17:22;;;;;;;14.20;7.07;;;8.50;54.00;;;;;;4971801;28;20061;-84
2022/03/09 10:20:06;;;;;;;10.55;7.30;;;8.60;55.60;;;;;;5007854;28;20097;-83
2022/03/09 10:22:37;;;;;;;11.30;7.72;;;8.70;54.70;;;;;;4992179;28;20038;-82
2022/03/09 10:25:09;;;;;;;10.73;6.55;;;8.80;54.80;;;;;;4991279;28;20038;-83
2022/03/09 10:27:54;;;;;;;12.55;7.28;;;8.80;54.10;;;;;;4990438;28;20077;-82
2022/03/09 10:30:23;;;;;;;13.32;6.60;;;9.00;54.50;;;;;;5012701;28;20173;-83
2022/03/09 10:32:52;;;;;;;10.05;7.15;;;9.10;53.40;;;;;;4995614;28;20046;-83
2022/03/09 10:35:38;;;;;;;14.32;7.43;;;9.30;52.50;;;;;;4979578;28;20447;-82
2022/03/09 10:38:25;;;;;;;11.63;7.25;;;9.50;51.60;;;;;;4979252;28;20092;-83
2022/03/09 10:40:55;;;;;;;12.95;7.80;;;9.60;52.50;;;;;;4995038;28;20049;-81
2022/03/09 10:43:27;;;;;;;11.32;6.95;;;9.80;52.20;;;;;;4979245;28;20125;-83
2022/03/09 10:46:09;;;;;;;13.32;7.32;;;9.90;52.00;;;;;;4979398;28;20472;-82
2022/03/09 10:49:00;;;;;;;10.80;7.13;;;10.10;50.70;;;;;;4979423;28;20042;-82
2022/03/09 10:51:36;;;;;;;11.68;7.40;;;10.30;49.50;;;;;;4995905;28;20057;-83
2022/03/09 10:54:08;;;;;;;11.15;6.88;;;10.50;49.20;;;;;;4995277;28;20074;-82
2022/03/09 10:56:35;;;;;;;12.13;7.20;;;10.60;50.50;;;;;;4979560;28;20061;-82
2022/03/09 10:59:12;;;;;;;9.52;7.10;;;10.70;50.30;;;;;;4979289;28;20135;-83
2022/03/09 11:01:38;;;;;;;13.82;7.25;;;10.70;49.30;;;;;;5012021;28;20365;-83
2022/03/09 11:04:12;;;;;;;14.13;6.90;;;10.90;49.60;;;;;;4995747;28;20101;-82
2022/03/09 11:06:42;;;;;;;12.32;7.43;;;11.00;49.60;;;;;;4979710;28;20388;-83
2022/03/09 11:09:10;;;;;;;14.32;7.90;;;11.10;49.50;;;;;;5012296;28;20106;-82
2022/03/09 11:11:38;;;;;;;12.77;7.82;;;11.30;48.30;;;;;;4996147;28;20053;-82
2022/03/09 11:14:04;;;;;;;12.27;7.38;;;11.40;47.70;;;;;;4979886;28;20049;-83
2022/03/09 11:16:31;;;;;;;12.07;7.38;;;11.60;48.30;;;;;;4979446;28;20034;-82
2022/03/09 11:18:57;;;;;;;11.38;7.10;;;11.70;48.10;;;;;;4979873;28;20038;-83
2022/03/09 11:21:23;;;;;;;13.90;7.97;;;11.80;47.80;;;;;;4978782;28;20479;-82
2022/03/09 11:23:50;;;;;;;12.18;7.53;;;11.80;47.80;;;;;;5011975;28;20046;-82
2022/03/09 11:26:19;;;;;;;10.93;7.78;;;12.00;47.90;;;;;;4995362;28;20074;-82
2022/03/09 11:28:45;;;;;;;13.60;8.18;;;12.10;47.00;;;;;;4995411;28;20089;-87
2022/03/09 11:31:21;;;;;;;12.02;7.78;;;12.20;46.10;;;;;;5011862;28;20142;-82
2022/03/09 11:33:53;;;;;;;13.40;7.47;;;12.30;44.90;;;;;;5011922;28;20050;-86
2022/03/09 11:36:27;;;;;;;11.30;7.43;;;12.50;45.70;;;;;;4978615;28;20058;-83
2022/03/09 11:39:17;;;;;;;11.50;7.60;;;12.60;44.50;;;;;;4994779;28;20050;-82
2022/03/09 11:41:44;;;;;;;11.93;7.15;;;12.80;43.20;;;;;;4972137;28;20137;-83
2022/03/09 11:44:19;;;;;;;13.40;7.60;;;12.90;44.60;;;;;;4994234;28;20042;-82
2022/03/09 11:46:58;;;;;;;12.07;7.93;;;13.00;43.30;;;;;;4994711;28;20046;-84
2022/03/09 11:49:30;;;;;;;11.35;7.75;;;13.20;40.30;;;;;;4994864;28;20444;-82
2022/03/09 11:52:12;;;;;;;11.35;8.25;;;13.30;42.90;;;;;;4975841;28;20133;-84
2022/03/09 11:54:42;;;;;;;12.60;8.02;;;13.40;39.80;;;;;;4991895;28;20133;-83
2022/03/09 11:57:08;;;;;;;13.27;8.20;;;13.50;41.90;;;;;;4975586;28;20768;-82
2022/03/09 11:59:34;;;;;;;11.73;7.55;;;13.60;42.20;;;;;;4991601;28;20047;-82
2022/03/09 12:02:03;;;;;;;10.75;7.07;;;13.80;41.80;;;;;;4975724;28;20043;-82
2022/03/09 12:04:53;;;;;;;11.18;7.70;;;13.90;41.10;;;;;;4959779;28;20047;-82
2022/03/09 12:07:28;;;;;;;11.45;8.05;;;14.10;39.60;;;;;;4959623;28;20476;-83
2022/03/09 12:09:59;;;;;;;11.25;7.18;;;14.20;40.40;;;;;;4959375;28;20042;-83
2022/03/09 12:12:26;;;;;;;9.73;7.28;;;14.50;39.00;;;;;;4975131;28;20484;-82
2022/03/09 12:15:13;;;;;;;11.13;7.32;;;14.60;39.10;;;;;;4976602;28;20053;-82
2022/03/09 12:17:42;;;;;;;10.00;7.72;;;14.90;36.70;;;;;;4975547;28;20051;-82
2022/03/09 12:20:23;;;;;;;11.75;7.93;;;15.30;38.30;;;;;;4991807;28;20058;-82
2022/03/09 12:23:03;;;;;;;11.90;8.80;;;16.10;35.10;;;;;;4975316;28;20466;-83
2022/03/09 12:25:41;;;;;;;15.02;8.50;;;16.90;34.00;;;;;;4959622;28;20046;-82
2022/03/09 12:30:58;;;;;;;9.25;7.72;;;18.90;30.00;;;;;;4975077;28;20203;-82
2022/03/09 12:33:47;;;;;;;9.45;8.05;;;19.80;30.50;;;;;;4975252;28;20050;-82
2022/03/09 12:39:22;;;;;;;11.82;7.50;;;21.40;28.30;;;;;;4975069;28;20054;-82
2022/03/09 12:41:56;;;;;;;9.15;7.40;;;22.40;27.70;;;;;;4974449;28;20484;-85
2022/03/09 12:44:22;;;;;;;9.13;7.85;;;23.00;26.40;;;;;;4975916;28;20389;-83
2022/03/09 12:46:53;;;;;;;12.48;7.95;;;23.20;25.80;;;;;;4990898;28;20063;-86
2022/03/09 12:49:28;;;;;;;11.00;8.02;;;23.40;24.70;;;;;;4958602;28;20121;-83
2022/03/09 12:51:56;;;;;;;10.30;8.20;;;23.50;24.60;;;;;;4993971;28;20052;-83
2022/03/09 12:54:30;;;;;;;8.48;7.57;;;23.60;24.30;;;;;;4993904;28;20078;-80
2022/03/09 12:56:56;;;;;;;12.57;7.88;;;23.80;24.00;;;;;;4975530;28;20129;-80
2022/03/09 12:59:21;;;;;;;10.90;8.00;;;23.90;23.90;;;;;;4992890;28;20205;-80
2022/03/09 13:01:54;;;;;;;9.85;7.70;;;24.00;23.90;;;;;;4992724;28;20048;-82
2022/03/09 13:04:22;;;;;;;10.90;8.73;;;24.30;22.30;;;;;;4976945;28;20046;-81